sensor_id;sensor_type;location;lat;lon;timestamp;P1;durP1;ratioP1;P2;durP2;ratioP2
70078;SDS011;57451;52.496;13.456;2023-04-01T00:00:59;4.68;;;2.10;;
70078;SDS011;57451;52.496;13.456;2023-04-01T00:03:27;6.80;;;2.03;;
70078;SDS011;57451;52.496;13.456;2023-04-01T00:05:57;5.80;;;2.03;;
70078;SDS011;57451;52.496;13.456;2023-04-01T00:08:25;5.78;;;1.98;;
70078;SDS011;57451;52.496;13.456;2023-04-01T00:10:53;4.85;;;2.00;;
70078;SDS011;57451;52.496;13.456;2023-04-01T00:13:21;5.88;;;2.28;;
70078;SDS011;57451;52.496;13.456;2023-04-01T00:15:48;4.50;;;1.83;;
70078;SDS011;57451;52.496;13.456;2023-04-01T00:18:16;5.53;;;2.10;;
70078;SDS011;57451;52.496;13.456;2023-04-01T00:20:43;5.97;;;2.30;;
70078;SDS011;57451;52.496;13.456;2023-04-01T00:23:13;4.90;;;2.00;;
70078;SDS011;57451;52.496;13.456;2023-04-01T00:25:41;5.28;;;1.80;;
70078;SDS011;57451;52.496;13.456;2023-04-01T00:28:08;6.70;;;2.10;;
70078;SDS011;57451;52.496;13.456;2023-04-01T00:30:36;5.78;;;2.13;;
70078;SDS011;57451;52.496;13.456;2023-04-01T00:33:04;4.97;;;2.17;;
70078;SDS011;57451;52.496;13.456;2023-04-01T00:35:31;4.70;;;2.00;;
70078;SDS011;57451;52.496;13.456;2023-04-01T00:37:59;5.07;;;1.92;;
70078;SDS011;57451;52.496;13.456;2023-04-01T00:40:29;5.97;;;2.10;;
70078;SDS011;57451;52.496;13.456;2023-04-01T00:42:58;5.35;;;1.98;;
70078;SDS011;57451;52.496;13.456;2023-04-01T00:45:27;5.63;;;2.08;;
70078;SDS011;57451;52.496;13.456;2023-04-01T00:47:58;5.35;;;2.20;;
70078;SDS011;57451;52.496;13.456;2023-04-01T00:50:28;4.63;;;2.20;;
70078;SDS011;57451;52.496;13.456;2023-04-01T00:52:57;4.63;;;2.07;;
70078;SDS011;57451;52.496;13.456;2023-04-01T00:55:25;5.72;;;2.00;;
70078;SDS011;57451;52.496;13.456;2023-04-01T00:57:58;5.70;;;1.95;;
70078;SDS011;57451;52.496;13.456;2023-04-01T01:00:28;6.80;;;2.08;;
70078;SDS011;57451;52.496;13.456;2023-04-01T01:02:56;4.43;;;1.83;;
70078;SDS011;57451;52.496;13.456;2023-04-01T01:05:25;5.37;;;2.10;;
70078;SDS011;57451;52.496;13.456;2023-04-01T01:08:15;8.07;;;2.10;;
70078;SDS011;57451;52.496;13.456;2023-04-01T01:10:53;4.57;;;1.98;;
70078;SDS011;57451;52.496;13.456;2023-04-01T01:13:22;7.32;;;2.20;;
70078;SDS011;57451;52.496;13.456;2023-04-01T01:15:58;5.18;;;1.90;;
70078;SDS011;57451;52.496;13.456;2023-04-01T01:18:33;5.77;;;2.00;;
70078;SDS011;57451;52.496;13.456;2023-04-01T01:21:16;6.15;;;2.00;;
70078;SDS011;57451;52.496;13.456;2023-04-01T01:27:01;5.30;;;1.88;;
70078;SDS011;57451;52.496;13.456;2023-04-01T01:32:38;7.47;;;1.90;;
70078;SDS011;57451;52.496;13.456;2023-04-01T01:35:31;6.68;;;2.25;;
70078;SDS011;57451;52.496;13.456;2023-04-01T01:38:08;5.03;;;1.98;;
70078;SDS011;57451;52.496;13.456;2023-04-01T01:40:43;5.93;;;2.00;;
70078;SDS011;57451;52.496;13.456;2023-04-01T01:43:12;5.00;;;2.22;;
70078;SDS011;57451;52.496;13.456;2023-04-01T01:45:46;5.77;;;2.07;;
70078;SDS011;57451;52.496;13.456;2023-04-01T01:48:17;6.78;;;2.20;;
70078;SDS011;57451;52.496;13.456;2023-04-01T01:50:48;5.00;;;2.05;;
70078;SDS011;57451;52.496;13.456;2023-04-01T01:53:17;5.22;;;2.00;;
70078;SDS011;57451;52.496;13.456;2023-04-01T01:55:45;5.07;;;2.15;;
70078;SDS011;57451;52.496;13.456;2023-04-01T01:58:15;5.53;;;1.90;;
70078;SDS011;57451;52.496;13.456;2023-04-01T02:00:48;4.63;;;1.75;;
70078;SDS011;57451;52.496;13.456;2023-04-01T02:03:17;4.75;;;1.70;;
70078;SDS011;57451;52.496;13.456;2023-04-01T02:05:48;5.55;;;2.03;;
70078;SDS011;57451;52.496;13.456;2023-04-01T02:08:19;5.60;;;2.08;;
70078;SDS011;57451;52.496;13.456;2023-04-01T02:10:53;4.17;;;2.00;;
70078;SDS011;57451;52.496;13.456;2023-04-01T02:13:29;5.85;;;2.10;;
70078;SDS011;57451;52.496;13.456;2023-04-01T02:16:02;5.40;;;1.92;;
70078;SDS011;57451;52.496;13.456;2023-04-01T02:18:34;5.95;;;2.10;;
70078;SDS011;57451;52.496;13.456;2023-04-01T02:21:06;6.20;;;2.00;;
70078;SDS011;57451;52.496;13.456;2023-04-01T02:23:36;6.00;;;1.80;;
70078;SDS011;57451;52.496;13.456;2023-04-01T02:26:05;6.75;;;1.90;;
70078;SDS011;57451;52.496;13.456;2023-04-01T02:28:34;8.32;;;1.73;;
70078;SDS011;57451;52.496;13.456;2023-04-01T02:31:04;4.60;;;1.73;;
70078;SDS011;57451;52.496;13.456;2023-04-01T02:33:32;5.30;;;1.70;;
70078;SDS011;57451;52.496;13.456;2023-04-01T02:36:00;6.77;;;1.80;;
70078;SDS011;57451;52.496;13.456;2023-04-01T02:38:28;4.78;;;1.58;;
70078;SDS011;57451;52.496;13.456;2023-04-01T02:40:56;5.38;;;1.58;;
70078;SDS011;57451;52.496;13.456;2023-04-01T02:43:26;5.47;;;1.55;;
70078;SDS011;57451;52.496;13.456;2023-04-01T02:45:54;5.72;;;1.58;;
70078;SDS011;57451;52.496;13.456;2023-04-01T02:48:21;5.13;;;1.80;;
70078;SDS011;57451;52.496;13.456;2023-04-01T02:50:48;3.55;;;1.58;;
70078;SDS011;57451;52.496;13.456;2023-04-01T02:53:16;4.93;;;1.73;;
70078;SDS011;57451;52.496;13.456;2023-04-01T02:55:45;5.60;;;1.98;;
70078;SDS011;57451;52.496;13.456;2023-04-01T02:58:12;6.43;;;2.10;;
70078;SDS011;57451;52.496;13.456;2023-04-01T03:00:39;5.93;;;1.90;;
70078;SDS011;57451;52.496;13.456;2023-04-01T03:03:07;4.78;;;1.80;;
70078;SDS011;57451;52.496;13.456;2023-04-01T03:05:34;5.13;;;1.95;;
70078;SDS011;57451;52.496;13.456;2023-04-01T03:08:02;5.28;;;2.13;;
70078;SDS011;57451;52.496;13.456;2023-04-01T03:10:29;5.97;;;2.10;;
70078;SDS011;57451;52.496;13.456;2023-04-01T03:12:58;4.97;;;1.97;;
70078;SDS011;57451;52.496;13.456;2023-04-01T03:15:25;4.80;;;2.00;;
70078;SDS011;57451;52.496;13.456;2023-04-01T03:17:53;5.57;;;2.00;;
70078;SDS011;57451;52.496;13.456;2023-04-01T03:20:21;6.10;;;2.13;;
70078;SDS011;57451;52.496;13.456;2023-04-01T03:22:49;5.15;;;2.03;;
70078;SDS011;57451;52.496;13.456;2023-04-01T03:25:17;6.50;;;2.00;;
70078;SDS011;57451;52.496;13.456;2023-04-01T03:27:44;5.32;;;1.80;;
70078;SDS011;57451;52.496;13.456;2023-04-01T03:30:13;6.55;;;1.95;;
70078;SDS011;57451;52.496;13.456;2023-04-01T03:32:48;6.28;;;2.13;;
70078;SDS011;57451;52.496;13.456;2023-04-01T03:35:16;6.20;;;2.30;;
70078;SDS011;57451;52.496;13.456;2023-04-01T03:37:45;4.80;;;1.90;;
70078;SDS011;57451;52.496;13.456;2023-04-01T03:40:12;5.53;;;1.90;;
70078;SDS011;57451;52.496;13.456;2023-04-01T03:42:39;6.65;;;2.13;;
70078;SDS011;57451;52.496;13.456;2023-04-01T03:45:07;5.28;;;2.00;;
70078;SDS011;57451;52.496;13.456;2023-04-01T03:47:36;4.80;;;2.20;;
70078;SDS011;57451;52.496;13.456;2023-04-01T03:50:04;7.17;;;2.07;;
70078;SDS011;57451;52.496;13.456;2023-04-01T03:52:33;6.03;;;1.85;;
70078;SDS011;57451;52.496;13.456;2023-04-01T03:55:01;6.72;;;2.30;;
70078;SDS011;57451;52.496;13.456;2023-04-01T03:57:30;4.60;;;2.17;;
70078;SDS011;57451;52.496;13.456;2023-04-01T04:00:03;9.13;;;2.22;;
70078;SDS011;57451;52.496;13.456;2023-04-01T04:02:40;7.20;;;2.10;;
70078;SDS011;57451;52.496;13.456;2023-04-01T04:05:10;5.80;;;2.22;;
70078;SDS011;57451;52.496;13.456;2023-04-01T04:07:37;6.28;;;2.03;;
70078;SDS011;57451;52.496;13.456;2023-04-01T04:10:07;5.15;;;2.00;;
70078;SDS011;57451;52.496;13.456;2023-04-01T04:12:35;5.25;;;1.95;;
70078;SDS011;57451;52.496;13.456;2023-04-01T04:15:02;4.80;;;1.90;;
70078;SDS011;57451;52.496;13.456;2023-04-01T04:17:30;6.82;;;2.20;;
70078;SDS011;57451;52.496;13.456;2023-04-01T04:19:58;8.23;;;2.38;;
70078;SDS011;57451;52.496;13.456;2023-04-01T04:22:26;5.80;;;2.00;;
70078;SDS011;57451;52.496;13.456;2023-04-01T04:24:53;6.85;;;2.55;;
70078;SDS011;57451;52.496;13.456;2023-04-01T04:27:21;5.83;;;2.00;;
70078;SDS011;57451;52.496;13.456;2023-04-01T04:30:05;8.18;;;2.20;;
70078;SDS011;57451;52.496;13.456;2023-04-01T04:32:34;6.90;;;2.22;;
70078;SDS011;57451;52.496;13.456;2023-04-01T04:35:04;6.45;;;2.40;;
70078;SDS011;57451;52.496;13.456;2023-04-01T04:37:33;5.35;;;2.15;;
70078;SDS011;57451;52.496;13.456;2023-04-01T04:40:01;5.93;;;2.47;;
70078;SDS011;57451;52.496;13.456;2023-04-01T04:42:29;7.35;;;2.45;;
70078;SDS011;57451;52.496;13.456;2023-04-01T04:45:03;7.65;;;2.20;;
70078;SDS011;57451;52.496;13.456;2023-04-01T04:47:31;5.97;;;2.40;;
70078;SDS011;57451;52.496;13.456;2023-04-01T04:49:58;5.60;;;2.40;;
70078;SDS011;57451;52.496;13.456;2023-04-01T04:52:27;5.83;;;2.50;;
70078;SDS011;57451;52.496;13.456;2023-04-01T04:54:54;4.95;;;2.63;;
70078;SDS011;57451;52.496;13.456;2023-04-01T04:57:22;7.25;;;2.60;;
70078;SDS011;57451;52.496;13.456;2023-04-01T04:59:53;5.70;;;2.60;;
70078;SDS011;57451;52.496;13.456;2023-04-01T05:02:41;7.22;;;2.65;;
70078;SDS011;57451;52.496;13.456;2023-04-01T05:05:09;7.60;;;2.37;;
70078;SDS011;57451;52.496;13.456;2023-04-01T05:07:38;7.00;;;3.00;;
70078;SDS011;57451;52.496;13.456;2023-04-01T05:10:06;7.03;;;2.65;;
70078;SDS011;57451;52.496;13.456;2023-04-01T05:12:33;7.72;;;2.90;;
70078;SDS011;57451;52.496;13.456;2023-04-01T05:15:05;6.57;;;2.85;;
70078;SDS011;57451;52.496;13.456;2023-04-01T05:17:34;5.23;;;2.87;;
70078;SDS011;57451;52.496;13.456;2023-04-01T05:20:03;6.97;;;2.88;;
70078;SDS011;57451;52.496;13.456;2023-04-01T05:22:31;6.07;;;2.45;;
70078;SDS011;57451;52.496;13.456;2023-04-01T05:25:00;5.88;;;2.63;;
70078;SDS011;57451;52.496;13.456;2023-04-01T05:27:28;5.13;;;2.67;;
70078;SDS011;57451;52.496;13.456;2023-04-01T05:29:55;9.00;;;2.80;;
70078;SDS011;57451;52.496;13.456;2023-04-01T05:32:37;6.65;;;2.90;;
70078;SDS011;57451;52.496;13.456;2023-04-01T05:35:05;7.22;;;3.03;;
70078;SDS011;57451;52.496;13.456;2023-04-01T05:37:33;7.60;;;2.95;;
70078;SDS011;57451;52.496;13.456;2023-04-01T05:40:04;6.88;;;2.72;;
70078;SDS011;57451;52.496;13.456;2023-04-01T05:42:32;6.90;;;3.00;;
70078;SDS011;57451;52.496;13.456;2023-04-01T05:45:03;5.78;;;2.80;;
70078;SDS011;57451;52.496;13.456;2023-04-01T05:48:09;6.97;;;2.75;;
70078;SDS011;57451;52.496;13.456;2023-04-01T05:50:39;8.35;;;2.80;;
70078;SDS011;57451;52.496;13.456;2023-04-01T05:53:09;6.22;;;2.60;;
70078;SDS011;57451;52.496;13.456;2023-04-01T05:55:40;6.93;;;2.77;;
70078;SDS011;57451;52.496;13.456;2023-04-01T05:58:07;7.25;;;2.60;;
70078;SDS011;57451;52.496;13.456;2023-04-01T06:00:37;6.32;;;2.65;;
70078;SDS011;57451;52.496;13.456;2023-04-01T06:03:05;6.35;;;2.70;;
70078;SDS011;57451;52.496;13.456;2023-04-01T06:05:36;7.45;;;2.60;;
70078;SDS011;57451;52.496;13.456;2023-04-01T06:08:09;8.53;;;2.87;;
70078;SDS011;57451;52.496;13.456;2023-04-01T06:10:43;8.73;;;3.05;;
70078;SDS011;57451;52.496;13.456;2023-04-01T06:13:21;8.25;;;2.83;;
70078;SDS011;57451;52.496;13.456;2023-04-01T06:16:03;6.78;;;3.13;;
70078;SDS011;57451;52.496;13.456;2023-04-01T06:18:39;8.23;;;3.33;;
70078;SDS011;57451;52.496;13.456;2023-04-01T06:21:22;6.90;;;3.23;;
70078;SDS011;57451;52.496;13.456;2023-04-01T06:24:07;8.75;;;3.08;;
70078;SDS011;57451;52.496;13.456;2023-04-01T06:26:50;6.97;;;3.22;;
70078;SDS011;57451;52.496;13.456;2023-04-01T06:29:42;7.22;;;3.10;;
70078;SDS011;57451;52.496;13.456;2023-04-01T06:32:22;7.07;;;3.42;;
70078;SDS011;57451;52.496;13.456;2023-04-01T06:35:19;8.73;;;3.30;;
70078;SDS011;57451;52.496;13.456;2023-04-01T06:38:00;7.50;;;3.28;;
70078;SDS011;57451;52.496;13.456;2023-04-01T06:40:46;7.45;;;2.85;;
70078;SDS011;57451;52.496;13.456;2023-04-01T06:43:39;6.80;;;2.60;;
70078;SDS011;57451;52.496;13.456;2023-04-01T06:46:40;5.70;;;2.88;;
70078;SDS011;57451;52.496;13.456;2023-04-01T06:49:36;8.20;;;2.87;;
70078;SDS011;57451;52.496;13.456;2023-04-01T06:52:36;9.23;;;2.85;;
70078;SDS011;57451;52.496;13.456;2023-04-01T06:55:35;7.63;;;2.80;;
70078;SDS011;57451;52.496;13.456;2023-04-01T06:58:37;6.97;;;3.10;;
70078;SDS011;57451;52.496;13.456;2023-04-01T07:01:10;10.80;;;3.13;;
70078;SDS011;57451;52.496;13.456;2023-04-01T07:03:42;6.33;;;3.17;;
70078;SDS011;57451;52.496;13.456;2023-04-01T07:06:16;9.23;;;3.30;;
70078;SDS011;57451;52.496;13.456;2023-04-01T07:08:54;7.38;;;3.28;;
70078;SDS011;57451;52.496;13.456;2023-04-01T07:11:49;6.85;;;3.13;;
70078;SDS011;57451;52.496;13.456;2023-04-01T07:15:00;7.93;;;3.17;;
70078;SDS011;57451;52.496;13.456;2023-04-01T07:17:32;7.97;;;3.37;;
70078;SDS011;57451;52.496;13.456;2023-04-01T07:20:03;10.02;;;3.47;;
70078;SDS011;57451;52.496;13.456;2023-04-01T07:22:38;8.68;;;3.10;;
70078;SDS011;57451;52.496;13.456;2023-04-01T07:25:20;7.60;;;3.38;;
70078;SDS011;57451;52.496;13.456;2023-04-01T07:28:11;7.43;;;2.78;;
70078;SDS011;57451;52.496;13.456;2023-04-01T07:30:47;7.90;;;3.13;;
70078;SDS011;57451;52.496;13.456;2023-04-01T07:33:26;6.13;;;3.05;;
70078;SDS011;57451;52.496;13.456;2023-04-01T07:36:03;6.55;;;2.92;;
70078;SDS011;57451;52.496;13.456;2023-04-01T07:38:39;10.32;;;3.30;;
70078;SDS011;57451;52.496;13.456;2023-04-01T07:41:32;9.25;;;3.38;;
70078;SDS011;57451;52.496;13.456;2023-04-01T07:44:10;7.97;;;3.17;;
70078;SDS011;57451;52.496;13.456;2023-04-01T07:46:51;6.72;;;2.88;;
70078;SDS011;57451;52.496;13.456;2023-04-01T07:49:28;7.15;;;3.42;;
70078;SDS011;57451;52.496;13.456;2023-04-01T07:52:01;7.25;;;3.28;;
70078;SDS011;57451;52.496;13.456;2023-04-01T07:54:37;7.35;;;3.38;;
70078;SDS011;57451;52.496;13.456;2023-04-01T07:57:09;6.13;;;3.20;;
70078;SDS011;57451;52.496;13.456;2023-04-01T07:59:49;6.60;;;3.45;;
70078;SDS011;57451;52.496;13.456;2023-04-01T08:02:44;8.52;;;3.55;;
70078;SDS011;57451;52.496;13.456;2023-04-01T08:05:22;8.13;;;3.80;;
70078;SDS011;57451;52.496;13.456;2023-04-01T08:08:02;9.00;;;3.95;;
70078;SDS011;57451;52.496;13.456;2023-04-01T08:10:55;8.07;;;3.93;;
70078;SDS011;57451;52.496;13.456;2023-04-01T08:13:49;8.30;;;4.10;;
70078;SDS011;57451;52.496;13.456;2023-04-01T08:16:50;11.18;;;4.07;;
70078;SDS011;57451;52.496;13.456;2023-04-01T08:19:43;8.43;;;4.25;;
70078;SDS011;57451;52.496;13.456;2023-04-01T08:22:26;9.82;;;4.63;;
70078;SDS011;57451;52.496;13.456;2023-04-01T08:25:00;9.20;;;4.30;;
70078;SDS011;57451;52.496;13.456;2023-04-01T08:27:31;5.60;;;2.60;;
70078;SDS011;57451;52.496;13.456;2023-04-01T08:30:06;4.80;;;2.17;;
70078;SDS011;57451;52.496;13.456;2023-04-01T08:32:44;5.60;;;2.47;;
70078;SDS011;57451;52.496;13.456;2023-04-01T08:35:20;5.47;;;2.47;;
70078;SDS011;57451;52.496;13.456;2023-04-01T08:37:58;6.33;;;2.90;;
70078;SDS011;57451;52.496;13.456;2023-04-01T08:40:39;6.45;;;3.20;;
70078;SDS011;57451;52.496;13.456;2023-04-01T08:43:29;7.40;;;3.80;;
70078;SDS011;57451;52.496;13.456;2023-04-01T08:46:15;9.07;;;4.25;;
70078;SDS011;57451;52.496;13.456;2023-04-01T08:54:56;8.82;;;4.70;;
70078;SDS011;57451;52.496;13.456;2023-04-01T08:58:07;9.52;;;4.75;;
70078;SDS011;57451;52.496;13.456;2023-04-01T09:03:38;9.15;;;5.03;;
70078;SDS011;57451;52.496;13.456;2023-04-01T09:06:25;11.10;;;5.73;;
70078;SDS011;57451;52.496;13.456;2023-04-01T09:09:12;10.50;;;5.80;;
70078;SDS011;57451;52.496;13.456;2023-04-01T09:11:59;10.27;;;5.55;;
70078;SDS011;57451;52.496;13.456;2023-04-01T09:14:53;9.18;;;4.95;;
70078;SDS011;57451;52.496;13.456;2023-04-01T09:20:45;10.37;;;5.87;;
70078;SDS011;57451;52.496;13.456;2023-04-01T09:23:37;9.68;;;5.65;;
70078;SDS011;57451;52.496;13.456;2023-04-01T09:26:21;11.57;;;6.13;;
70078;SDS011;57451;52.496;13.456;2023-04-01T09:29:06;9.48;;;5.82;;
70078;SDS011;57451;52.496;13.456;2023-04-01T09:31:56;8.57;;;5.18;;
70078;SDS011;57451;52.496;13.456;2023-04-01T09:34:51;8.80;;;5.30;;
70078;SDS011;57451;52.496;13.456;2023-04-01T09:37:29;8.82;;;5.15;;
70078;SDS011;57451;52.496;13.456;2023-04-01T09:40:14;9.75;;;5.45;;
70078;SDS011;57451;52.496;13.456;2023-04-01T09:43:00;7.82;;;4.82;;
70078;SDS011;57451;52.496;13.456;2023-04-01T09:45:47;8.27;;;5.32;;
70078;SDS011;57451;52.496;13.456;2023-04-01T09:48:30;10.03;;;5.40;;
70078;SDS011;57451;52.496;13.456;2023-04-01T09:51:23;9.10;;;4.65;;
70078;SDS011;57451;52.496;13.456;2023-04-01T09:54:04;8.43;;;5.05;;
70078;SDS011;57451;52.496;13.456;2023-04-01T09:59:52;8.30;;;4.82;;
70078;SDS011;57451;52.496;13.456;2023-04-01T10:02:59;7.80;;;4.77;;
70078;SDS011;57451;52.496;13.456;2023-04-01T10:06:03;8.45;;;5.03;;
70078;SDS011;57451;52.496;13.456;2023-04-01T10:18:08;9.77;;;5.80;;
70078;SDS011;57451;52.496;13.456;2023-04-01T10:20:54;8.88;;;5.72;;
70078;SDS011;57451;52.496;13.456;2023-04-01T10:23:45;9.50;;;6.00;;
70078;SDS011;57451;52.496;13.456;2023-04-01T10:26:33;9.75;;;6.50;;
70078;SDS011;57451;52.496;13.456;2023-04-01T10:33:16;10.50;;;6.60;;
70078;SDS011;57451;52.496;13.456;2023-04-01T10:36:13;13.18;;;6.88;;
70078;SDS011;57451;52.496;13.456;2023-04-01T10:39:08;10.60;;;6.63;;
70078;SDS011;57451;52.496;13.456;2023-04-01T10:45:44;9.23;;;6.00;;
70078;SDS011;57451;52.496;13.456;2023-04-01T10:48:39;8.87;;;5.90;;
70078;SDS011;57451;52.496;13.456;2023-04-01T10:51:25;8.93;;;5.45;;
70078;SDS011;57451;52.496;13.456;2023-04-01T10:54:36;9.10;;;5.13;;
70078;SDS011;57451;52.496;13.456;2023-04-01T10:57:55;6.97;;;4.95;;
70078;SDS011;57451;52.496;13.456;2023-04-01T11:01:14;7.07;;;4.32;;
70078;SDS011;57451;52.496;13.456;2023-04-01T11:08:24;6.15;;;3.83;;
70078;SDS011;57451;52.496;13.456;2023-04-01T11:11:18;5.78;;;3.45;;
70078;SDS011;57451;52.496;13.456;2023-04-01T11:14:18;6.00;;;3.67;;
70078;SDS011;57451;52.496;13.456;2023-04-01T11:20:21;5.60;;;3.20;;
70078;SDS011;57451;52.496;13.456;2023-04-01T11:23:20;5.00;;;2.88;;
70078;SDS011;57451;52.496;13.456;2023-04-01T11:26:04;8.43;;;3.30;;
70078;SDS011;57451;52.496;13.456;2023-04-01T11:29:18;5.07;;;2.50;;
70078;SDS011;57451;52.496;13.456;2023-04-01T11:32:02;4.50;;;2.85;;
70078;SDS011;57451;52.496;13.456;2023-04-01T11:34:44;5.43;;;3.20;;
70078;SDS011;57451;52.496;13.456;2023-04-01T11:37:33;4.75;;;2.60;;
70078;SDS011;57451;52.496;13.456;2023-04-01T11:40:42;5.07;;;2.80;;
70078;SDS011;57451;52.496;13.456;2023-04-01T11:43:34;4.40;;;2.30;;
70078;SDS011;57451;52.496;13.456;2023-04-01T11:46:24;5.10;;;2.70;;
70078;SDS011;57451;52.496;13.456;2023-04-01T11:49:02;5.73;;;2.93;;
70078;SDS011;57451;52.496;13.456;2023-04-01T11:51:44;5.13;;;2.45;;
70078;SDS011;57451;52.496;13.456;2023-04-01T11:54:25;4.68;;;2.35;;
70078;SDS011;57451;52.496;13.456;2023-04-01T11:57:07;5.72;;;3.03;;
70078;SDS011;57451;52.496;13.456;2023-04-01T12:00:04;5.50;;;2.75;;
70078;SDS011;57451;52.496;13.456;2023-04-01T12:02:50;6.30;;;2.57;;
70078;SDS011;57451;52.496;13.456;2023-04-01T12:05:36;4.75;;;2.53;;
70078;SDS011;57451;52.496;13.456;2023-04-01T12:08:10;4.93;;;2.45;;
70078;SDS011;57451;52.496;13.456;2023-04-01T12:10:46;5.93;;;2.90;;
70078;SDS011;57451;52.496;13.456;2023-04-01T12:13:29;5.53;;;2.75;;
70078;SDS011;57451;52.496;13.456;2023-04-01T12:16:05;6.50;;;3.67;;
70078;SDS011;57451;52.496;13.456;2023-04-01T12:18:41;5.85;;;3.08;;
70078;SDS011;57451;52.496;13.456;2023-04-01T12:21:17;5.38;;;3.20;;
70078;SDS011;57451;52.496;13.456;2023-04-01T12:23:56;5.75;;;3.30;;
70078;SDS011;57451;52.496;13.456;2023-04-01T12:26:47;6.60;;;3.75;;
70078;SDS011;57451;52.496;13.456;2023-04-01T12:29:40;6.67;;;3.97;;
70078;SDS011;57451;52.496;13.456;2023-04-01T12:32:19;9.23;;;4.25;;
70078;SDS011;57451;52.496;13.456;2023-04-01T12:34:54;7.20;;;4.05;;
70078;SDS011;57451;52.496;13.456;2023-04-01T12:37:35;5.95;;;3.83;;
70078;SDS011;57451;52.496;13.456;2023-04-01T12:40:23;6.93;;;4.10;;
70078;SDS011;57451;52.496;13.456;2023-04-01T12:43:18;6.57;;;4.00;;
70078;SDS011;57451;52.496;13.456;2023-04-01T12:46:05;7.15;;;3.80;;
70078;SDS011;57451;52.496;13.456;2023-04-01T12:48:50;5.85;;;3.53;;
70078;SDS011;57451;52.496;13.456;2023-04-01T12:51:50;7.28;;;3.38;;
70078;SDS011;57451;52.496;13.456;2023-04-01T12:54:55;5.40;;;3.45;;
70078;SDS011;57451;52.496;13.456;2023-04-01T13:01:06;5.47;;;3.30;;
70078;SDS011;57451;52.496;13.456;2023-04-01T13:04:12;5.75;;;3.35;;
70078;SDS011;57451;52.496;13.456;2023-04-01T13:06:58;6.85;;;4.15;;
70078;SDS011;57451;52.496;13.456;2023-04-01T13:09:40;7.25;;;4.28;;
70078;SDS011;57451;52.496;13.456;2023-04-01T13:12:23;6.77;;;4.47;;
70078;SDS011;57451;52.496;13.456;2023-04-01T13:15:10;6.43;;;4.30;;
70078;SDS011;57451;52.496;13.456;2023-04-01T13:17:45;6.85;;;4.20;;
70078;SDS011;57451;52.496;13.456;2023-04-01T13:20:20;8.63;;;5.60;;
70078;SDS011;57451;52.496;13.456;2023-04-01T13:22:58;9.65;;;5.40;;
70078;SDS011;57451;52.496;13.456;2023-04-01T13:25:36;7.73;;;5.40;;
70078;SDS011;57451;52.496;13.456;2023-04-01T13:28:12;7.65;;;4.25;;
70078;SDS011;57451;52.496;13.456;2023-04-01T13:30:45;8.25;;;4.55;;
70078;SDS011;57451;52.496;13.456;2023-04-01T13:33:23;5.55;;;3.47;;
70078;SDS011;57451;52.496;13.456;2023-04-01T13:36:03;8.30;;;4.50;;
70078;SDS011;57451;52.496;13.456;2023-04-01T13:38:53;6.30;;;3.63;;
70078;SDS011;57451;52.496;13.456;2023-04-01T13:41:37;6.35;;;3.55;;
70078;SDS011;57451;52.496;13.456;2023-04-01T13:44:15;6.90;;;3.75;;
70078;SDS011;57451;52.496;13.456;2023-04-01T13:46:53;5.75;;;3.67;;
70078;SDS011;57451;52.496;13.456;2023-04-01T13:49:48;7.13;;;3.95;;
70078;SDS011;57451;52.496;13.456;2023-04-01T13:52:41;6.37;;;4.23;;
70078;SDS011;57451;52.496;13.456;2023-04-01T13:55:37;7.45;;;4.70;;
70078;SDS011;57451;52.496;13.456;2023-04-01T13:58:24;8.05;;;5.65;;
70078;SDS011;57451;52.496;13.456;2023-04-01T14:01:14;8.82;;;5.45;;
70078;SDS011;57451;52.496;13.456;2023-04-01T14:03:50;7.80;;;5.40;;
70078;SDS011;57451;52.496;13.456;2023-04-01T14:06:34;9.13;;;6.23;;
70078;SDS011;57451;52.496;13.456;2023-04-01T14:09:20;9.13;;;5.47;;
70078;SDS011;57451;52.496;13.456;2023-04-01T14:12:03;9.00;;;4.97;;
70078;SDS011;57451;52.496;13.456;2023-04-01T14:14:36;7.35;;;4.47;;
70078;SDS011;57451;52.496;13.456;2023-04-01T14:20:20;7.63;;;5.67;;
70078;SDS011;57451;52.496;13.456;2023-04-01T14:23:00;9.10;;;6.00;;
70078;SDS011;57451;52.496;13.456;2023-04-01T14:25:50;8.35;;;5.47;;
70078;SDS011;57451;52.496;13.456;2023-04-01T14:28:30;9.63;;;6.05;;
70078;SDS011;57451;52.496;13.456;2023-04-01T14:31:13;9.18;;;6.15;;
70078;SDS011;57451;52.496;13.456;2023-04-01T14:33:57;8.77;;;4.47;;
70078;SDS011;57451;52.496;13.456;2023-04-01T14:36:40;10.00;;;5.50;;
70078;SDS011;57451;52.496;13.456;2023-04-01T14:39:22;8.60;;;5.00;;
70078;SDS011;57451;52.496;13.456;2023-04-01T14:42:03;8.27;;;5.88;;
70078;SDS011;57451;52.496;13.456;2023-04-01T14:44:52;7.90;;;4.82;;
70078;SDS011;57451;52.496;13.456;2023-04-01T14:47:32;6.87;;;4.60;;
70078;SDS011;57451;52.496;13.456;2023-04-01T14:50:09;7.40;;;4.95;;
70078;SDS011;57451;52.496;13.456;2023-04-01T14:52:40;8.52;;;4.97;;
70078;SDS011;57451;52.496;13.456;2023-04-01T14:55:19;9.57;;;5.70;;
70078;SDS011;57451;52.496;13.456;2023-04-01T14:58:04;9.32;;;5.72;;
70078;SDS011;57451;52.496;13.456;2023-04-01T15:00:46;7.97;;;5.33;;
70078;SDS011;57451;52.496;13.456;2023-04-01T15:03:19;9.32;;;5.20;;
70078;SDS011;57451;52.496;13.456;2023-04-01T15:05:52;6.70;;;4.03;;
70078;SDS011;57451;52.496;13.456;2023-04-01T15:08:28;7.43;;;4.50;;
70078;SDS011;57451;52.496;13.456;2023-04-01T15:11:06;6.80;;;4.43;;
70078;SDS011;57451;52.496;13.456;2023-04-01T15:13:50;7.07;;;4.10;;
70078;SDS011;57451;52.496;13.456;2023-04-01T15:16:31;5.88;;;3.60;;
70078;SDS011;57451;52.496;13.456;2023-04-01T15:19:10;6.70;;;3.58;;
70078;SDS011;57451;52.496;13.456;2023-04-01T15:21:49;6.55;;;4.28;;
70078;SDS011;57451;52.496;13.456;2023-04-01T15:24:24;6.88;;;4.63;;
70078;SDS011;57451;52.496;13.456;2023-04-01T15:27:04;8.60;;;5.43;;
70078;SDS011;57451;52.496;13.456;2023-04-01T15:29:50;7.97;;;5.45;;
70078;SDS011;57451;52.496;13.456;2023-04-01T15:32:36;9.38;;;6.10;;
70078;SDS011;57451;52.496;13.456;2023-04-01T15:35:15;7.47;;;5.57;;
70078;SDS011;57451;52.496;13.456;2023-04-01T15:37:51;8.35;;;5.65;;
70078;SDS011;57451;52.496;13.456;2023-04-01T15:40:24;9.53;;;5.33;;
70078;SDS011;57451;52.496;13.456;2023-04-01T15:43:02;8.32;;;4.93;;
70078;SDS011;57451;52.496;13.456;2023-04-01T15:45:41;6.65;;;4.07;;
70078;SDS011;57451;52.496;13.456;2023-04-01T15:48:20;6.72;;;4.25;;
70078;SDS011;57451;52.496;13.456;2023-04-01T15:51:01;7.68;;;4.40;;
70078;SDS011;57451;52.496;13.456;2023-04-01T15:53:49;7.53;;;4.33;;
70078;SDS011;57451;52.496;13.456;2023-04-01T15:56:38;6.72;;;2.72;;
70078;SDS011;57451;52.496;13.456;2023-04-01T15:59:18;7.78;;;4.10;;
70078;SDS011;57451;52.496;13.456;2023-04-01T16:01:57;7.00;;;3.95;;
70078;SDS011;57451;52.496;13.456;2023-04-01T16:04:46;6.82;;;3.78;;
70078;SDS011;57451;52.496;13.456;2023-04-01T16:07:42;6.63;;;4.07;;
70078;SDS011;57451;52.496;13.456;2023-04-01T16:10:34;8.60;;;4.65;;
70078;SDS011;57451;52.496;13.456;2023-04-01T16:13:18;8.18;;;4.70;;
70078;SDS011;57451;52.496;13.456;2023-04-01T16:15:56;9.27;;;4.30;;
70078;SDS011;57451;52.496;13.456;2023-04-01T16:18:34;8.55;;;5.35;;
70078;SDS011;57451;52.496;13.456;2023-04-01T16:21:12;12.67;;;7.47;;
70078;SDS011;57451;52.496;13.456;2023-04-01T16:23:51;11.23;;;5.95;;
70078;SDS011;57451;52.496;13.456;2023-04-01T16:26:24;6.82;;;4.35;;
70078;SDS011;57451;52.496;13.456;2023-04-01T16:28:57;9.45;;;5.00;;
70078;SDS011;57451;52.496;13.456;2023-04-01T16:31:34;8.30;;;5.10;;
70078;SDS011;57451;52.496;13.456;2023-04-01T16:34:10;7.43;;;4.83;;